Time;durP1;ratioP1;P1;durP2;ratioP2;P2;SDS_P1;SDS_P2;PMS_P1;PMS_P2;Temp;Humidity;BMP_temperature;BMP_pressure;BME280_temperature;BME280_humidity;BME280_pressure;Samples;Min_cycle;Max_cycle;Signal;HPM_P1;HPM_P2
2024/01/29 00:09:34;;;;;;;4.25;3.47;;;6.40;1.00;;;;;;4990276;28;20200;-82
2024/01/29 00:20:01;;;;;;;5.60;4.18;;;6.40;1.00;;;;;;4926203;29;20204;-83
2024/01/29 00:25:42;;;;;;;6.63;4.00;;;6.40;1.00;;;;;;4993003;28;20231;-81
2024/01/29 00:28:25;;;;;;;7.68;3.75;;;6.40;1.00;;;;;;4994930;28;20212;-81
2024/01/29 00:30:51;;;;;;;10.48;4.70;;;6.40;1.00;;;;;;5013775;28;20188;-85
2024/01/29 00:33:18;;;;;;;4.97;4.47;;;6.40;1.00;;;;;;4993879;28;20195;-82
2024/01/29 00:35:43;;;;;;;5.93;3.70;;;6.40;1.00;;;;;;5001256;28;20482;-84
2024/01/29 00:38:09;;;;;;;5.20;4.43;;;6.40;1.00;;;;;;5000828;28;20673;-79
2024/01/29 00:40:34;;;;;;;7.43;4.07;;;6.50;1.00;;;;;;4999207;28;20188;-83
2024/01/29 00:43:00;;;;;;;8.23;4.17;;;6.50;1.00;;;;;;4997783;28;20179;-82
2024/01/29 00:45:26;;;;;;;6.10;3.97;;;6.50;1.00;;;;;;4997824;28;21745;-86
2024/01/29 00:47:52;;;;;;;7.45;3.95;;;6.50;1.00;;;;;;4985619;28;20184;-83
2024/01/29 00:50:18;;;;;;;7.80;3.50;;;6.50;1.00;;;;;;4983388;28;20203;-82
2024/01/29 00:52:43;;;;;;;6.93;3.53;;;6.50;1.00;;;;;;4993143;28;20190;-81
2024/01/29 00:55:09;;;;;;;6.77;3.60;;;6.50;1.00;;;;;;4996544;28;20211;-82
2024/01/29 00:57:34;;;;;;;6.83;3.13;;;6.60;1.00;;;;;;4990326;28;20188;-82
2024/01/29 00:59:59;;;;;;;5.90;3.50;;;6.60;1.00;;;;;;4981887;28;20276;-81
2024/01/29 01:02:25;;;;;;;5.50;3.70;;;6.50;1.00;;;;;;4988762;28;20191;-81
2024/01/29 01:04:50;;;;;;;12.60;3.73;;;6.50;1.00;;;;;;4986756;28;20243;-80
2024/01/29 01:07:16;;;;;;;6.77;3.67;;;6.50;1.00;;;;;;4991856;28;20207;-81
2024/01/29 01:09:41;;;;;;;4.07;3.03;;;6.50;1.00;;;;;;5009868;28;20192;-83
2024/01/29 01:12:07;;;;;;;6.70;4.20;;;6.60;1.00;;;;;;4993722;28;20203;-81
2024/01/29 01:14:33;;;;;;;12.20;4.23;;;6.60;1.00;;;;;;4997164;28;20211;-83
2024/01/29 01:16:58;;;;;;;5.27;3.97;;;6.50;1.00;;;;;;4996778;28;20188;-83
2024/01/29 01:19:24;;;;;;;5.20;3.33;;;6.50;1.00;;;;;;4992586;28;20818;-86
2024/01/29 01:21:50;;;;;;;4.80;3.23;;;6.50;1.00;;;;;;4994089;28;20181;-84
2024/01/29 01:24:15;;;;;;;4.17;3.70;;;6.50;1.00;;;;;;4995357;28;20614;-82
2024/01/29 01:26:41;;;;;;;5.80;3.77;;;6.50;1.00;;;;;;4987198;28;20435;-85
2024/01/29 01:29:07;;;;;;;7.93;4.23;;;6.50;1.00;;;;;;4989491;28;20566;-82
2024/01/29 01:31:32;;;;;;;7.00;3.73;;;6.50;1.00;;;;;;5008072;28;20184;-84
2024/01/29 01:33:58;;;;;;;5.33;4.10;;;6.50;1.00;;;;;;4989286;28;20757;-83
2024/01/29 01:36:23;;;;;;;7.83;3.90;;;6.40;1.00;;;;;;4996811;28;20191;-82
2024/01/29 01:38:49;;;;;;;4.23;3.43;;;6.40;1.00;;;;;;4994259;28;20200;-83
2024/01/29 01:41:14;;;;;;;4.70;4.10;;;6.40;1.00;;;;;;4988894;28;20560;-82
2024/01/29 01:43:40;;;;;;;5.50;3.90;;;6.50;1.00;;;;;;4986206;28;20216;-81
2024/01/29 01:46:12;;;;;;;8.70;4.30;;;6.40;1.00;;;;;;4987459;28;20180;-82
2024/01/29 01:48:38;;;;;;;5.70;3.53;;;6.50;1.00;;;;;;4982870;28;20192;-82
2024/01/29 01:51:04;;;;;;;8.07;4.30;;;6.50;1.00;;;;;;4988121;28;20272;-83
2024/01/29 01:53:32;;;;;;;6.32;4.55;;;6.50;1.00;;;;;;4993670;28;20306;-83
2024/01/29 01:56:01;;;;;;;4.63;3.95;;;6.50;1.00;;;;;;4982785;28;20218;-84
2024/01/29 01:58:27;;;;;;;6.32;3.80;;;6.50;1.00;;;;;;4990828;28;20196;-82
2024/01/29 02:00:55;;;;;;;7.10;3.75;;;6.50;1.00;;;;;;4987802;28;20602;-82
2024/01/29 02:03:20;;;;;;;4.60;4.20;;;6.60;1.00;;;;;;4996061;28;20188;-82
2024/01/29 02:05:46;;;;;;;3.83;3.40;;;6.60;1.00;;;;;;4987258;28;20227;-83
2024/01/29 02:08:15;;;;;;;6.17;3.90;;;6.50;1.00;;;;;;4991160;28;20216;-80
2024/01/29 02:10:40;;;;;;;4.68;3.60;;;6.50;1.00;;;;;;4992781;28;20608;-83
2024/01/29 02:13:15;;;;;;;6.30;4.10;;;6.50;1.00;;;;;;4992297;28;20229;-82
2024/01/29 02:15:43;;;;;;;6.65;4.03;;;6.50;1.00;;;;;;4991953;28;20212;-82
2024/01/29 02:18:09;;;;;;;5.20;4.57;;;6.60;1.00;;;;;;4993744;28;20275;-83
2024/01/29 02:20:35;;;;;;;6.10;4.20;;;6.60;1.00;;;;;;4990684;28;20231;-84
2024/01/29 02:23:01;;;;;;;4.20;3.50;;;6.50;1.00;;;;;;4983811;28;20604;-83
2024/01/29 02:25:27;;;;;;;7.43;4.00;;;6.60;1.00;;;;;;4989808;28;21753;-82
2024/01/29 02:27:53;;;;;;;6.80;4.23;;;6.60;1.00;;;;;;4995307;28;20203;-83
2024/01/29 02:30:18;;;;;;;8.93;4.00;;;6.50;1.00;;;;;;4996433;28;20188;-83
2024/01/29 02:32:44;;;;;;;5.20;4.10;;;6.60;1.00;;;;;;4996240;28;20180;-82
2024/01/29 02:35:09;;;;;;;5.83;3.63;;;6.60;1.00;;;;;;4994687;28;20235;-82
2024/01/29 02:37:35;;;;;;;5.53;4.50;;;6.50;1.00;;;;;;4992893;28;20540;-82
2024/01/29 02:40:00;;;;;;;8.93;4.50;;;6.50;1.00;;;;;;4990700;28;20181;-84
2024/01/29 02:42:26;;;;;;;7.30;4.47;;;6.50;1.00;;;;;;4991307;28;20269;-82
2024/01/29 02:44:52;;;;;;;7.17;4.17;;;6.40;1.00;;;;;;4988736;28;20693;-83
2024/01/29 02:47:17;;;;;;;7.07;4.00;;;6.30;1.00;;;;;;4983089;28;20204;-82
2024/01/29 02:49:43;;;;;;;8.40;4.37;;;6.30;1.00;;;;;;4983640;28;20184;-84
2024/01/29 02:52:10;;;;;;;4.65;3.60;;;6.20;1.00;;;;;;4995461;28;20196;-83
2024/01/29 02:54:36;;;;;;;4.95;3.75;;;6.30;1.00;;;;;;4995969;28;20225;-83
2024/01/29 02:57:02;;;;;;;7.10;4.57;;;6.20;1.00;;;;;;4989287;28;20546;-82
2024/01/29 02:59:27;;;;;;;5.97;4.70;;;6.20;1.00;;;;;;4989245;28;20443;-84
2024/01/29 03:01:54;;;;;;;6.10;4.10;;;6.10;25.50;;;;;;4989393;28;20447;-84
2024/01/29 03:04:19;;;;;;;7.22;3.72;;;6.10;59.10;;;;;;4991318;28;20224;-84
2024/01/29 03:06:45;;;;;;;7.33;4.73;;;6.10;49.20;;;;;;4991878;28;20650;-85
2024/01/29 03:09:10;;;;;;;4.63;3.83;;;6.10;80.30;;;;;;5006235;28;20184;-85
2024/01/29 03:11:36;;;;;;;13.30;5.40;;;6.10;93.10;;;;;;4992448;28;20190;-85
2024/01/29 03:14:01;;;;;;;6.47;4.00;;;6.00;99.90;;;;;;4989160;28;20204;-85
2024/01/29 03:16:27;;;;;;;5.53;4.30;;;6.00;99.90;;;;;;4984600;28;20641;-83
2024/01/29 03:18:52;;;;;;;6.17;4.50;;;6.00;99.90;;;;;;4997144;28;20190;-84
2024/01/29 03:21:18;;;;;;;6.80;5.00;;;6.00;99.90;;;;;;4992798;28;20257;-85
2024/01/29 03:23:43;;;;;;;6.17;5.57;;;5.90;99.90;;;;;;4989542;28;20205;-83
2024/01/29 03:26:09;;;;;;;7.27;4.30;;;5.90;99.90;;;;;;4987034;28;20181;-85
2024/01/29 03:28:35;;;;;;;6.00;4.10;;;5.90;99.90;;;;;;4981696;28;20225;-84
2024/01/29 03:31:00;;;;;;;5.57;4.27;;;5.90;99.90;;;;;;4994530;28;20219;-85
2024/01/29 03:33:26;;;;;;;6.80;5.20;;;5.90;99.90;;;;;;4985871;28;20595;-86
2024/01/29 03:35:51;;;;;;;4.80;3.67;;;5.90;99.90;;;;;;4986764;28;20207;-83
2024/01/29 03:38:17;;;;;;;5.40;3.97;;;5.90;99.90;;;;;;4992942;28;20226;-85
2024/01/29 03:40:42;;;;;;;5.23;4.00;;;5.90;99.90;;;;;;4988331;28;20621;-84
2024/01/29 03:43:08;;;;;;;8.17;4.93;;;5.90;99.90;;;;;;5012291;28;20243;-84
2024/01/29 03:45:34;;;;;;;6.47;4.23;;;5.90;99.90;;;;;;4996755;28;20298;-83
2024/01/29 03:47:59;;;;;;;5.03;3.80;;;5.90;99.90;;;;;;4997364;28;20183;-88
2024/01/29 03:50:25;;;;;;;6.53;4.60;;;5.80;99.90;;;;;;4992925;28;20188;-82
2024/01/29 03:52:50;;;;;;;7.30;5.17;;;5.90;99.90;;;;;;4988601;28;20199;-81
2024/01/29 03:55:16;;;;;;;7.53;4.33;;;5.80;99.90;;;;;;4985744;28;20263;-82
2024/01/29 03:57:42;;;;;;;7.20;4.50;;;5.80;99.90;;;;;;4983356;28;20267;-82
2024/01/29 04:00:08;;;;;;;4.80;4.30;;;5.80;99.90;;;;;;5001565;28;20234;-83
2024/01/29 04:02:33;;;;;;;6.03;4.10;;;5.80;99.90;;;;;;4988690;28;20349;-82
2024/01/29 04:04:59;;;;;;;6.60;4.30;;;5.80;99.90;;;;;;4991567;28;20212;-82
2024/01/29 04:07:24;;;;;;;7.07;4.43;;;5.80;99.90;;;;;;4989739;28;20280;-82
2024/01/29 04:09:50;;;;;;;7.13;5.00;;;5.80;99.90;;;;;;4991860;28;20195;-82
2024/01/29 04:12:17;;;;;;;7.30;5.67;;;5.80;99.90;;;;;;4993541;28;20199;-82
2024/01/29 04:14:46;;;;;;;5.95;4.13;;;5.70;99.90;;;;;;4994006;28;20227;-82
2024/01/29 04:17:12;;;;;;;23.38;11.80;;;5.70;1.00;;;;;;4990254;28;20192;-82
2024/01/29 04:19:38;;;;;;;6.65;4.63;;;5.70;1.00;;;;;;4983307;28;20200;-82
2024/01/29 04:22:04;;;;;;;10.68;4.45;;;5.70;1.00;;;;;;4990537;28;20291;-82
2024/01/29 04:24:30;;;;;;;6.38;4.15;;;5.70;1.00;;;;;;4989445;28;20227;-82
2024/01/29 04:26:56;;;;;;;16.57;9.10;;;5.70;1.00;;;;;;4994761;28;20181;-82
2024/01/29 04:29:22;;;;;;;12.80;4.70;;;5.70;1.00;;;;;;4988899;28;20419;-86
2024/01/29 04:31:47;;;;;;;35.93;14.20;;;5.70;1.00;;;;;;4990116;28;20270;-82
2024/01/29 04:34:13;;;;;;;18.20;10.50;;;5.70;1.00;;;;;;5006780;28;20903;-82
2024/01/29 04:36:38;;;;;;;5.90;4.37;;;5.70;1.00;;;;;;4991807;28;20658;-82
2024/01/29 04:39:04;;;;;;;42.23;16.00;;;5.70;1.00;;;;;;4986253;28;20192;-81
2024/01/29 04:41:30;;;;;;;7.50;5.00;;;5.70;1.00;;;;;;4998503;28;20180;-83
2024/01/29 04:43:56;;;;;;;7.07;4.80;;;5.60;1.00;;;;;;4993493;28;20466;-83
2024/01/29 04:46:23;;;;;;;7.40;4.60;;;5.60;1.00;;;;;;4990432;28;20459;-83
2024/01/29 04:48:49;;;;;;;6.85;4.13;;;5.70;1.00;;;;;;4983590;28;20600;-82
2024/01/29 04:51:15;;;;;;;5.23;4.17;;;5.60;1.00;;;;;;4993552;28;20188;-84
2024/01/29 04:53:40;;;;;;;14.23;7.13;;;5.60;1.00;;;;;;4992138;28;20188;-82
2024/01/29 04:56:06;;;;;;;51.83;25.80;;;5.60;1.00;;;;;;5014686;23;20506;-85
2024/01/29 04:58:32;;;;;;;43.80;20.08;;;5.60;1.00;;;;;;4994049;28;20191;-85
2024/01/29 05:00:59;;;;;;;14.93;8.90;;;5.60;1.00;;;;;;4994819;28;20184;-83
2024/01/29 05:03:24;;;;;;;6.45;4.68;;;5.70;1.00;;;;;;4992850;28;20184;-85
2024/01/29 05:05:50;;;;;;;8.87;5.80;;;5.70;1.00;;;;;;4986131;28;20705;-86
2024/01/29 05:08:16;;;;;;;13.23;8.13;;;5.70;1.00;;;;;;4994337;28;20188;-85
2024/01/29 05:10:42;;;;;;;10.85;7.00;;;5.60;1.00;;;;;;4992155;28;20279;-86
2024/01/29 05:13:08;;;;;;;8.10;5.20;;;5.60;1.00;;;;;;4989868;28;20220;-85
2024/01/29 05:15:34;;;;;;;11.23;5.90;;;5.60;1.00;;;;;;4983236;28;20604;-85
2024/01/29 05:18:00;;;;;;;9.05;5.72;;;5.60;1.00;;;;;;4995940;28;20435;-86
2024/01/29 05:20:25;;;;;;;18.30;10.80;;;5.60;1.00;;;;;;4998717;28;20280;-86
2024/01/29 05:22:51;;;;;;;22.03;13.37;;;5.50;1.00;;;;;;4996964;28;20176;-86
2024/01/29 05:25:16;;;;;;;45.27;25.40;;;5.50;1.00;;;;;;4992595;28;20256;-87
2024/01/29 05:27:42;;;;;;;28.27;16.60;;;5.50;1.00;;;;;;4989539;28;20271;-87
2024/01/29 05:30:08;;;;;;;37.67;22.87;;;5.50;1.00;;;;;;4995526;28;20218;-85
2024/01/29 05:32:34;;;;;;;9.00;4.75;;;5.50;1.00;;;;;;4996750;28;20203;-85
2024/01/29 05:35:02;;;;;;;12.00;5.40;;;5.50;1.00;;;;;;4996075;28;20287;-87
2024/01/29 05:37:28;;;;;;;5.82;4.20;;;5.40;1.00;;;;;;4992454;28;20188;-85
2024/01/29 05:39:54;;;;;;;5.35;4.45;;;5.40;61.00;;;;;;4996092;28;20180;-85
2024/01/29 05:42:20;;;;;;;5.57;4.63;;;5.30;99.90;;;;;;4991856;28;20185;-85
2024/01/29 05:44:45;;;;;;;11.60;5.23;;;5.30;99.90;;;;;;4992661;28;20533;-85
2024/01/29 05:47:11;;;;;;;9.33;5.87;;;5.30;99.90;;;;;;4983828;28;20243;-87
2024/01/29 05:49:36;;;;;;;10.43;5.70;;;5.30;99.90;;;;;;4988221;28;20180;-86
2024/01/29 05:52:02;;;;;;;5.50;4.97;;;5.30;1.00;;;;;;4993461;28;20185;-85
2024/01/29 05:54:28;;;;;;;5.53;4.00;;;5.30;1.00;;;;;;4991560;28;20273;-85
2024/01/29 05:56:54;;;;;;;6.20;4.20;;;5.20;1.00;;;;;;4991900;28;20199;-87
2024/01/29 05:59:19;;;;;;;7.30;4.73;;;5.20;1.00;;;;;;4989478;28;20204;-88
2024/01/29 06:01:45;;;;;;;6.90;4.23;;;5.20;1.00;;;;;;4994792;28;20269;-85
2024/01/29 06:04:10;;;;;;;7.63;4.60;;;5.20;1.00;;;;;;4992572;28;20214;-86
2024/01/29 06:06:37;;;;;;;5.10;4.33;;;5.20;1.00;;;;;;4991423;28;20204;-85
2024/01/29 06:09:05;;;;;;;7.75;4.25;;;5.20;8.30;;;;;;4991323;28;20554;-86
2024/01/29 06:11:31;;;;;;;6.45;5.10;;;5.20;1.00;;;;;;4989712;28;20184;-85
2024/01/29 06:13:56;;;;;;;5.13;3.97;;;5.20;1.00;;;;;;4983384;28;20185;-85
2024/01/29 06:16:22;;;;;;;5.50;4.63;;;5.30;1.00;;;;;;4992245;28;20267;-85
2024/01/29 06:18:48;;;;;;;6.90;5.07;;;5.30;1.00;;;;;;4995024;28;20419;-85
2024/01/29 06:21:14;;;;;;;9.82;5.40;;;5.30;99.90;;;;;;4990607;28;20204;-85
2024/01/29 06:23:40;;;;;;;11.80;7.60;;;5.20;1.00;;;;;;4994678;28;20215;-85
2024/01/29 06:26:06;;;;;;;16.93;10.17;;;5.20;1.00;;;;;;4994480;28;20203;-86
2024/01/29 06:28:31;;;;;;;13.18;7.72;;;5.10;99.90;;;;;;4993512;28;20424;-85
2024/01/29 06:30:57;;;;;;;12.00;7.60;;;5.10;1.00;;;;;;4992218;28;20184;-87
2024/01/29 06:33:22;;;;;;;13.43;7.80;;;5.10;1.00;;;;;;4994677;28;20180;-85
2024/01/29 06:35:48;;;;;;;9.53;7.27;;;5.10;99.90;;;;;;4992721;28;20200;-84
2024/01/29 06:38:13;;;;;;;10.53;6.40;;;5.00;1.00;;;;;;4987903;28;20188;-86
2024/01/29 06:40:39;;;;;;;7.90;6.60;;;5.00;1.00;;;;;;4994439;28;20194;-85
2024/01/29 06:43:04;;;;;;;11.03;6.47;;;4.90;99.90;;;;;;4993535;28;20192;-86
2024/01/29 06:45:30;;;;;;;6.47;5.73;;;4.90;99.90;;;;;;4982568;28;20224;-86
2024/01/29 06:47:57;;;;;;;9.57;6.20;;;4.90;99.90;;;;;;4991468;28;20180;-87
2024/01/29 06:50:23;;;;;;;7.35;5.32;;;4.90;1.00;;;;;;4999477;28;20237;-86
2024/01/29 06:52:49;;;;;;;6.53;4.70;;;4.90;1.00;;;;;;4998163;28;20180;-85
2024/01/29 06:55:15;;;;;;;7.17;4.97;;;4.90;1.00;;;;;;4998962;28;20226;-87
2024/01/29 06:57:40;;;;;;;5.60;4.97;;;4.90;99.90;;;;;;4997616;28;20239;-85
2024/01/29 07:00:07;;;;;;;7.05;5.05;;;4.90;99.90;;;;;;4997501;28;20469;-87
2024/01/29 07:02:34;;;;;;;10.00;5.15;;;5.00;1.00;;;;;;4991183;28;20194;-85
2024/01/29 07:04:59;;;;;;;7.57;5.43;;;5.00;1.00;;;;;;4995839;28;20294;-85
2024/01/29 07:07:25;;;;;;;10.60;4.70;;;5.00;1.00;;;;;;4998667;28;20211;-86
2024/01/29 07:09:57;;;;;;;8.27;5.23;;;4.90;1.00;;;;;;4987285;28;20250;-85
2024/01/29 07:12:22;;;;;;;7.97;5.45;;;4.90;99.90;;;;;;4994253;28;20188;-85
2024/01/29 07:14:49;;;;;;;8.70;5.57;;;4.90;99.90;;;;;;4996484;28;20212;-85
2024/01/29 07:17:15;;;;;;;7.78;5.47;;;4.90;99.90;;;;;;4996082;28;20648;-85
2024/01/29 07:19:40;;;;;;;7.53;5.17;;;4.90;99.90;;;;;;4992229;28;20185;-85
2024/01/29 07:22:08;;;;;;;7.37;5.70;;;5.00;99.90;;;;;;4997118;28;20263;-85
2024/01/29 07:24:34;;;;;;;9.63;6.10;;;5.00;99.90;;;;;;4994889;28;20215;-85
2024/01/29 07:27:00;;;;;;;8.93;5.70;;;5.10;99.90;;;;;;4996535;28;20290;-86
2024/01/29 07:29:26;;;;;;;7.93;5.00;;;5.20;99.90;;;;;;4998056;28;20187;-85
2024/01/29 07:31:53;;;;;;;8.20;5.97;;;5.30;89.00;;;;;;4995504;28;20210;-85
2024/01/29 07:34:19;;;;;;;7.32;5.65;;;5.30;1.00;;;;;;4994720;28;20187;-85
2024/01/29 07:36:44;;;;;;;10.63;5.33;;;5.30;1.00;;;;;;4986923;28;20191;-85
2024/01/29 07:39:12;;;;;;;9.10;6.67;;;5.40;1.00;;;;;;4990431;28;20189;-85
2024/01/29 07:41:41;;;;;;;7.25;5.80;;;5.50;1.00;;;;;;4984417;28;20209;-85
2024/01/29 07:44:07;;;;;;;8.55;5.70;;;5.70;1.00;;;;;;4987355;28;20239;-86
2024/01/29 07:46:33;;;;;;;6.20;4.70;;;5.80;99.90;;;;;;4990620;28;20235;-86
2024/01/29 07:49:01;;;;;;;6.70;5.20;;;5.90;99.90;;;;;;4988614;28;20184;-85
2024/01/29 07:51:27;;;;;;;9.95;5.80;;;6.00;99.90;;;;;;4991243;28;20689;-85
2024/01/29 07:53:53;;;;;;;9.10;6.13;;;6.20;29.60;;;;;;4988757;28;20219;-86
2024/01/29 07:56:18;;;;;;;8.47;5.53;;;6.50;1.00;;;;;;4990153;28;20220;-86
2024/01/29 07:58:44;;;;;;;10.90;4.60;;;6.90;1.00;;;;;;4984405;28;20192;-86
2024/01/29 08:01:09;;;;;;;10.83;5.90;;;7.70;99.90;;;;;;4991013;28;20666;-86
2024/01/29 08:03:35;;;;;;;6.13;4.90;;;8.50;1.00;;;;;;4991188;28;20195;-86
2024/01/29 08:06:01;;;;;;;7.93;5.13;;;9.50;1.00;;;;;;4989821;28;20204;-86
2024/01/29 08:08:27;;;;;;;8.33;5.33;;;10.60;1.00;;;;;;4980911;28;20231;-87
2024/01/29 08:10:52;;;;;;;7.97;5.30;;;11.80;1.00;;;;;;4989595;28;21040;-86
2024/01/29 08:13:18;;;;;;;7.53;5.93;;;13.00;99.90;;;;;;4989698;28;20598;-87
2024/01/29 08:15:44;;;;;;;9.50;5.70;;;14.30;99.90;;;;;;4995533;28;20287;-86
2024/01/29 08:18:09;;;;;;;8.53;6.17;;;15.50;99.90;;;;;;4993273;28;20522;-87
2024/01/29 08:20:35;;;;;;;7.97;4.97;;;16.20;99.90;;;;;;4999193;28;20182;-89
2024/01/29 08:23:02;;;;;;;11.17;5.20;;;16.40;99.90;;;;;;4995624;28;20187;-87
2024/01/29 08:25:28;;;;;;;6.73;5.10;;;16.50;99.90;;;;;;4994511;28;20235;-87
2024/01/29 08:27:53;;;;;;;8.30;5.80;;;16.00;99.90;;;;;;4989101;28;20438;-85
2024/01/29 08:30:19;;;;;;;7.40;5.77;;;15.90;99.90;;;;;;4993715;28;20188;-84
2024/01/29 08:32:44;;;;;;;7.73;5.50;;;15.60;99.90;;;;;;4995598;28;20172;-85
2024/01/29 08:35:10;;;;;;;7.73;5.77;;;15.20;99.90;;;;;;4986503;28;21712;-87
2024/01/29 08:37:36;;;;;;;7.80;5.47;;;14.70;99.90;;;;;;4988024;28;20184;-85
2024/01/29 08:40:02;;;;;;;6.93;5.20;;;14.80;99.90;;;;;;4988600;28;20176;-85
2024/01/29 08:42:28;;;;;;;7.33;5.77;;;14.90;99.90;;;;;;4989669;28;20238;-88
2024/01/29 08:44:56;;;;;;;7.17;5.50;;;15.40;99.90;;;;;;4991756;28;20470;-85
2024/01/29 08:47:22;;;;;;;7.50;5.47;;;16.40;99.90;;;;;;4989862;28;20207;-85
2024/01/29 08:49:49;;;;;;;5.73;5.13;;;17.60;99.90;;;;;;4993446;28;20423;-85
2024/01/29 08:52:15;;;;;;;7.27;4.87;;;19.20;99.90;;;;;;4987083;28;20431;-86
2024/01/29 08:54:41;;;;;;;14.37;5.50;;;20.40;99.90;;;;;;4991302;28;20528;-86
2024/01/29 08:57:06;;;;;;;7.40;5.33;;;20.20;99.90;;;;;;4983189;28;20180;-86
2024/01/29 08:59:32;;;;;;;6.43;5.13;;;21.10;99.90;;;;;;5002998;28;20184;-86
2024/01/29 09:01:57;;;;;;;6.20;5.60;;;22.40;99.90;;;;;;4994418;28;20269;-86
2024/01/29 09:04:23;;;;;;;5.20;4.70;;;23.30;99.90;;;;;;4987032;28;20289;-87
2024/01/29 09:06:49;;;;;;;6.27;4.80;;;23.90;99.90;;;;;;4993670;28;20191;-87
2024/01/29 09:09:15;;;;;;;6.80;5.50;;;24.50;99.90;;;;;;4991932;28;20450;-86
2024/01/29 09:11:40;;;;;;;5.67;5.03;;;24.70;99.90;;;;;;4990490;28;20188;-85
2024/01/29 09:14:06;;;;;;;8.10;5.40;;;25.10;99.90;;;;;;4993789;28;20195;-84
2024/01/29 09:16:32;;;;;;;9.80;5.23;;;24.90;99.90;;;;;;4994653;28;20220;-84
2024/01/29 09:18:58;;;;;;;7.80;6.07;;;23.90;99.90;;;;;;4986522;28;20193;-86
2024/01/29 09:21:31;;;;;;;7.10;5.60;;;23.30;99.90;;;;;;4995283;28;20531;-87
2024/01/29 09:23:56;;;;;;;6.33;5.73;;;22.40;99.90;;;;;;4992391;28;20459;-86
2024/01/29 09:26:22;;;;;;;6.40;5.77;;;22.40;99.90;;;;;;4993727;28;20967;-85
2024/01/29 09:28:47;;;;;;;6.10;5.43;;;22.00;99.90;;;;;;4993918;28;20227;-85
2024/01/29 09:31:16;;;;;;;8.07;5.90;;;22.40;99.90;;;;;;4994635;28;20269;-86
2024/01/29 09:33:41;;;;;;;7.20;6.23;;;22.40;99.90;;;;;;4987569;28;20235;-86
2024/01/29 09:36:07;;;;;;;7.90;6.50;;;21.20;99.90;;;;;;4990869;28;20592;-87
2024/01/29 09:38:32;;;;;;;16.03;8.80;;;20.50;99.90;;;;;;4993140;28;20654;-86
2024/01/29 09:40:58;;;;;;;13.63;11.83;;;20.40;99.90;;;;;;4987528;28;20204;-85
2024/01/29 09:43:26;;;;;;;9.43;5.90;;;20.20;99.90;;;;;;4993764;28;20191;-85
2024/01/29 09:45:52;;;;;;;8.43;7.10;;;19.40;99.90;;;;;;4982119;28;20256;-86
2024/01/29 09:48:19;;;;;;;24.50;16.90;;;19.70;99.90;;;;;;4988870;28;20451;-86
2024/01/29 09:50:47;;;;;;;10.00;6.00;;;20.30;99.90;;;;;;4990752;28;20948;-86
2024/01/29 09:53:16;;;;;;;17.90;13.87;;;19.90;99.90;;;;;;4987805;28;20523;-85
2024/01/29 09:55:42;;;;;;;11.23;9.20;;;19.90;99.90;;;;;;4990407;28;20535;-87
2024/01/29 09:58:08;;;;;;;15.60;14.07;;;19.90;99.90;;;;;;4992708;28;20502;-86
2024/01/29 10:00:34;;;;;;;8.80;7.80;;;19.60;99.90;;;;;;4985175;28;20281;-86
2024/01/29 10:03:04;;;;;;;7.60;6.70;;;19.00;99.90;;;;;;4990646;28;20187;-85
2024/01/29 10:05:31;;;;;;;6.83;5.90;;;18.60;99.90;;;;;;4989683;28;21094;-87
2024/01/29 10:08:01;;;;;;;8.80;7.33;;;18.00;99.90;;;;;;4987320;28;20439;-86
2024/01/29 10:10:27;;;;;;;7.20;6.23;;;17.20;99.90;;;;;;4989861;28;20446;-86
2024/01/29 10:13:06;;;;;;;14.83;7.83;;;17.20;99.90;;;;;;4989215;28;20439;-86
2024/01/29 10:15:32;;;;;;;13.77;7.53;;;16.80;99.90;;;;;;4987949;28;20473;-86
2024/01/29 10:17:57;;;;;;;9.67;7.27;;;16.50;99.90;;;;;;4990852;28;20940;-86
2024/01/29 10:20:23;;;;;;;7.93;6.60;;;16.50;99.90;;;;;;4988443;28;20207;-86
2024/01/29 10:22:58;;;;;;;6.77;6.07;;;16.10;99.90;;;;;;4990504;28;20597;-85
2024/01/29 10:25:23;;;;;;;8.43;7.20;;;16.00;99.90;;;;;;4989036;28;20498;-86
2024/01/29 10:27:49;;;;;;;8.00;7.17;;;15.50;99.90;;;;;;4983294;28;20474;-86
2024/01/29 10:30:15;;;;;;;8.53;7.00;;;15.40;99.90;;;;;;4991017;28;20673;-86
2024/01/29 10:32:40;;;;;;;7.80;6.50;;;15.00;99.90;;;;;;4990886;28;20180;-86
2024/01/29 10:35:06;;;;;;;8.63;7.10;;;14.90;99.90;;;;;;4988635;28;20204;-86
2024/01/29 10:37:31;;;;;;;9.30;7.10;;;14.80;99.90;;;;;;4982035;28;20200;-87
2024/01/29 10:40:02;;;;;;;10.90;7.47;;;14.80;99.90;;;;;;4986924;28;20192;-85
2024/01/29 10:42:28;;;;;;;11.90;7.17;;;15.10;99.90;;;;;;4981648;28;20199;-85
2024/01/29 10:44:58;;;;;;;15.07;9.20;;;15.10;99.90;;;;;;4988800;28;20471;-85
2024/01/29 10:47:33;;;;;;;13.27;7.87;;;15.20;99.90;;;;;;4986082;28;20525;-85
2024/01/29 10:49:59;;;;;;;11.90;9.30;;;15.20;99.90;;;;;;4990845;28;20430;-86
2024/01/29 10:52:26;;;;;;;8.50;6.53;;;15.50;99.90;;;;;;4988697;28;20858;-86
2024/01/29 10:54:55;;;;;;;13.07;7.73;;;15.80;99.90;;;;;;4990537;28;20273;-86
2024/01/29 10:57:21;;;;;;;9.83;6.83;;;15.70;99.90;;;;;;4989946;28;20451;-87
2024/01/29 10:59:48;;;;;;;11.60;7.10;;;15.90;99.90;;;;;;4987557;28;20431;-86
2024/01/29 11:02:14;;;;;;;8.57;7.23;;;15.60;99.90;;;;;;4989979;28;21018;-87
2024/01/29 11:04:40;;;;;;;12.03;7.53;;;15.40;99.90;;;;;;4990337;28;20836;-85
2024/01/29 11:07:12;;;;;;;9.00;7.93;;;15.50;99.90;;;;;;4988566;28;20465;-86
2024/01/29 11:09:44;;;;;;;8.70;7.53;;;15.40;99.90;;;;;;4992158;28;20438;-85
2024/01/29 11:12:13;;;;;;;10.87;8.50;;;15.30;99.90;;;;;;4989787;28;20467;-86
2024/01/29 11:14:40;;;;;;;9.90;7.03;;;15.30;99.90;;;;;;4990788;28;20455;-87
2024/01/29 11:17:06;;;;;;;8.93;7.30;;;15.60;99.90;;;;;;4989450;28;20448;-87
2024/01/29 11:19:34;;;;;;;11.43;7.30;;;15.60;99.90;;;;;;4991667;28;20527;-88
2024/01/29 11:22:01;;;;;;;9.13;6.57;;;16.00;99.90;;;;;;4988114;28;20465;-86
2024/01/29 11:24:26;;;;;;;10.23;7.77;;;16.80;99.90;;;;;;4991996;28;20466;-87
2024/01/29 11:26:52;;;;;;;9.93;7.57;;;17.00;99.90;;;;;;4987797;28;20489;-88
2024/01/29 11:29:18;;;;;;;14.23;7.37;;;17.40;99.90;;;;;;4986689;28;20715;-85
2024/01/29 11:31:45;;;;;;;7.20;6.40;;;18.30;99.90;;;;;;4988106;28;20532;-86
2024/01/29 11:34:13;;;;;;;8.13;7.00;;;19.20;99.90;;;;;;4979183;28;20196;-87
2024/01/29 11:36:39;;;;;;;9.90;7.13;;;19.80;99.90;;;;;;4978092;28;20459;-88
2024/01/29 11:39:09;;;;;;;7.10;6.40;;;20.00;99.90;;;;;;4990789;28;20492;-86
2024/01/29 11:41:39;;;;;;;7.73;6.87;;;20.70;99.90;;;;;;4983076;28;20451;-86
2024/01/29 11:44:04;;;;;;;8.40;7.40;;;20.70;99.90;;;;;;4989936;28;20478;-87
2024/01/29 11:46:30;;;;;;;9.93;7.43;;;20.80;99.90;;;;;;4988260;28;20468;-87
2024/01/29 11:48:59;;;;;;;11.90;7.20;;;21.60;99.90;;;;;;5007326;28;20188;-87
2024/01/29 11:51:28;;;;;;;10.93;7.83;;;22.20;99.90;;;;;;4994380;28;20184;-88
2024/01/29 11:53:53;;;;;;;8.37;6.40;;;22.70;99.90;;;;;;4984904;28;20862;-87
2024/01/29 11:56:24;;;;;;;7.07;6.10;;;22.90;99.90;;;;;;4988647;28;20506;-86
2024/01/29 11:59:02;;;;;;;7.87;7.07;;;23.30;99.90;;;;;;4994581;28;20180;-86
2024/01/29 12:01:31;;;;;;;7.37;6.37;;;23.60;99.90;;;;;;4997934;28;20851;-88
2024/01/29 12:03:57;;;;;;;13.53;7.33;;;23.40;99.90;;;;;;4995456;28;20431;-88
2024/01/29 12:06:23;;;;;;;7.60;6.80;;;23.00;99.90;;;;;;4983023;28;20491;-88
2024/01/29 12:08:50;;;;;;;11.23;6.17;;;22.80;99.90;;;;;;4990849;28;20518;-88
2024/01/29 12:11:16;;;;;;;9.23;6.70;;;23.10;99.90;;;;;;4995314;28;20185;-87
2024/01/29 12:13:42;;;;;;;7.20;6.50;;;23.70;99.90;;;;;;4993085;28;20964;-88
2024/01/29 12:16:09;;;;;;;7.07;6.20;;;23.80;99.90;;;;;;4994357;28;20283;-88
2024/01/29 12:18:38;;;;;;;11.60;7.20;;;23.80;99.90;;;;;;4994045;28;20215;-87
2024/01/29 12:21:04;;;;;;;12.57;6.87;;;24.10;99.90;;;;;;4994914;28;20523;-88
2024/01/29 12:23:30;;;;;;;9.53;7.47;;;24.10;99.90;;;;;;4987985;28;20500;-89
2024/01/29 12:25:56;;;;;;;7.47;6.50;;;23.40;99.90;;;;;;4992713;28;20899;-88
2024/01/29 12:28:25;;;;;;;9.77;7.53;;;23.70;99.90;;;;;;4993877;28;20264;-89
2024/01/29 12:30:57;;;;;;;8.53;6.40;;;23.90;99.90;;;;;;4985710;28;20500;-86
2024/01/29 12:33:30;;;;;;;9.33;6.73;;;24.50;99.90;;;;;;4994247;28;20436;-87
2024/01/29 12:36:09;;;;;;;15.10;6.93;;;23.90;99.90;;;;;;4988769;28;20539;-89
2024/01/29 12:38:35;;;;;;;7.63;6.83;;;24.10;99.90;;;;;;4982636;28;20452;-87
2024/01/29 12:41:00;;;;;;;10.83;6.83;;;24.20;99.90;;;;;;4990363;28;20454;-87
2024/01/29 12:43:27;;;;;;;11.93;7.47;;;24.20;99.90;;;;;;4989460;28;20200;-87
2024/01/29 12:46:09;;;;;;;10.70;7.03;;;23.70;99.90;;;;;;5006571;28;20216;-87
2024/01/29 12:48:34;;;;;;;8.60;7.07;;;23.80;99.90;;;;;;4994617;28;20440;-88
2024/01/29 12:51:00;;;;;;;12.07;7.40;;;23.80;99.90;;;;;;4993291;28;20465;-86
2024/01/29 12:53:26;;;;;;;7.27;6.27;;;23.90;99.90;;;;;;4985957;28;20185;-88
2024/01/29 12:55:51;;;;;;;9.20;6.77;;;24.50;99.90;;;;;;5005830;28;20230;-88
2024/01/29 12:58:17;;;;;;;7.40;6.40;;;24.70;99.90;;;;;;4994830;28;20269;-87
2024/01/29 13:00:46;;;;;;;10.97;7.40;;;25.10;99.90;;;;;;4992255;28;20190;-87
2024/01/29 13:03:11;;;;;;;8.23;7.40;;;24.00;99.90;;;;;;4990527;28;20529;-87
2024/01/29 13:05:37;;;;;;;9.97;7.07;;;23.40;99.90;;;;;;4990641;28;20533;-89
2024/01/29 13:08:03;;;;;;;7.90;7.00;;;22.50;99.90;;;;;;4988704;28;20427;-87
2024/01/29 13:10:30;;;;;;;10.83;8.37;;;22.00;99.90;;;;;;4989262;28;20336;-88